Terminal Aerodrome Forecast
Issued by NWS

Home | Current Version | Previous Version | Text Only | Print | Product List | Glossary Off
Versions: 1 2 3 4 5 6 7 8 9 10 11 12 13

000
FTUS43 KIWX 202300
TAFSBN
TAF
KSBN 202328Z 2100/2124 01009KT P6SM -RA OVC080
     FM210600 01006KT P6SM OVC060
     FM211500 29012KT P6SM BKN080
     FM211900 29014KT P6SM SKC=

USA.gov is the U.S. government's official web portal to all federal, state and local government web resources and services.